Time;durP1;ratioP1;P1;durP2;ratioP2;P2;SDS_P1;SDS_P2;PMS_P1;PMS_P2;Temp;Humidity;BMP_temperature;BMP_pressure;BME280_temperature;BME280_humidity;BME280_pressure;Samples;Min_cycle;Max_cycle;Signal;HPM_P1;HPM_P2
2022/01/31 00:00:29;;;;;;;27.60;3.63;;;;;;;8.90;41.99;101143.44;4878207;28;97084;-79
2022/01/31 00:03:00;;;;;;;22.63;3.15;;;;;;;8.72;42.06;101140.31;4879550;28;99280;-78
2022/01/31 00:05:33;;;;;;;26.65;3.45;;;;;;;8.28;42.72;101116.59;4877058;28;97909;-79
2022/01/31 00:07:59;;;;;;;37.65;4.45;;;;;;;8.77;42.20;101111.22;4879137;28;97525;-81
2022/01/31 00:10:32;;;;;;;22.35;3.75;;;;;;;9.19;41.28;101115.47;4877400;28;98930;-79
2022/01/31 00:13:03;;;;;;;19.95;3.08;;;;;;;9.29;40.78;101113.50;4873771;28;97664;-78
2022/01/31 00:15:32;;;;;;;21.27;3.03;;;;;;;9.17;41.08;101119.94;4878275;28;99936;-79
2022/01/31 00:17:59;;;;;;;27.10;3.58;;;;;;;9.40;40.79;101115.88;4882266;28;96709;-79
2022/01/31 00:20:26;;;;;;;35.60;4.13;;;;;;;9.24;41.07;101103.97;4878372;28;96689;-80
2022/01/31 00:22:56;;;;;;;31.27;3.92;;;;;;;8.62;43.01;101093.09;4879185;28;98784;-80
2022/01/31 00:25:23;;;;;;;26.42;3.38;;;;;;;8.69;42.92;101081.53;4877315;28;98791;-80
2022/01/31 00:27:51;;;;;;;31.23;4.45;;;;;;;8.67;43.12;101076.28;4884718;28;98460;-79
2022/01/31 00:30:19;;;;;;;29.17;4.03;;;;;;;8.50;43.96;101075.81;4879094;28;97053;-79
2022/01/31 00:32:47;;;;;;;29.60;4.03;;;;;;;8.52;44.74;101060.84;4878380;28;101403;-80
2022/01/31 00:35:15;;;;;;;26.08;2.88;;;;;;;8.61;44.59;101046.59;4875448;28;97995;-79
2022/01/31 00:37:48;;;;;;;23.88;3.13;;;;;;;8.83;44.20;101045.19;4880891;28;96807;-78
2022/01/31 00:40:19;;;;;;;39.10;4.47;;;;;;;8.47;46.04;101048.69;4881384;28;97098;-78
2022/01/31 00:42:52;;;;;;;33.72;4.03;;;;;;;8.03;47.37;101047.81;4887135;28;98001;-79
2022/01/31 00:45:24;;;;;;;21.90;3.58;;;;;;;8.21;47.01;101050.06;4884136;28;99546;-77
2022/01/31 00:48:00;;;;;;;31.75;4.82;;;;;;;8.09;47.52;101042.41;4891019;28;96780;-77
2022/01/31 00:50:27;;;;;;;32.85;3.78;;;;;;;8.29;47.35;101045.50;4891070;28;96825;-79
2022/01/31 00:52:55;;;;;;;29.15;4.97;;;;;;;8.65;47.13;101041.25;4886430;28;97730;-79
2022/01/31 00:55:24;;;;;;;32.35;4.45;;;;;;;7.37;50.40;101042.94;4876902;28;99263;-79
2022/01/31 00:57:51;;;;;;;41.95;4.55;;;;;;;7.89;50.01;101039.31;4880493;28;97890;-79
2022/01/31 01:00:20;;;;;;;36.13;4.88;;;;;;;8.04;50.00;101028.50;4883705;28;97078;-79
2022/01/31 01:02:47;;;;;;;33.97;4.20;;;;;;;8.26;49.08;101035.06;4883005;28;100427;-79
2022/01/31 01:05:14;;;;;;;21.75;3.45;;;;;;;7.95;50.00;101028.66;4884182;28;97859;-79
2022/01/31 01:07:45;;;;;;;27.73;5.72;;;;;;;8.54;49.17;101024.78;4881895;28;97231;-78
2022/01/31 01:10:13;;;;;;;35.90;4.38;;;;;;;8.58;49.38;101018.56;4881463;28;96908;-78
2022/01/31 01:12:41;;;;;;;49.95;5.70;;;;;;;8.40;49.92;101013.72;4883113;28;98710;-78
2022/01/31 01:15:08;;;;;;;44.55;5.88;;;;;;;8.10;50.67;101004.69;4882212;28;101462;-79
2022/01/31 01:17:35;;;;;;;39.95;5.63;;;;;;;7.78;51.86;101005.34;4873878;28;96790;-78
2022/01/31 01:20:02;;;;;;;38.22;5.22;;;;;;;7.99;51.48;100999.66;4877508;28;96925;-79
2022/01/31 01:22:29;;;;;;;42.15;5.07;;;;;;;7.97;51.22;100992.66;4880864;28;100135;-79
2022/01/31 01:24:55;;;;;;;36.97;4.88;;;;;;;8.42;50.72;100982.94;4881595;28;98064;-78
2022/01/31 01:27:23;;;;;;;40.65;5.15;;;;;;;8.38;50.23;100983.91;4883243;28;97039;-79
2022/01/31 01:29:53;;;;;;;31.52;4.70;;;;;;;8.43;50.24;100971.50;4879499;28;96796;-78
2022/01/31 01:32:19;;;;;;;35.67;4.72;;;;;;;8.73;49.48;100970.75;4878590;28;98711;-79
2022/01/31 01:34:46;;;;;;;30.50;4.00;;;;;;;8.90;48.91;100966.88;4882918;28;96844;-78
2022/01/31 01:37:14;;;;;;;37.90;4.80;;;;;;;8.48;49.76;100951.19;4882297;28;96693;-78
2022/01/31 01:39:42;;;;;;;30.75;4.18;;;;;;;8.96;48.40;100951.75;4886962;28;96934;-79
2022/01/31 01:42:09;;;;;;;39.00;4.25;;;;;;;8.60;49.23;100945.63;4887559;28;99540;-78
2022/01/31 01:44:43;;;;;;;41.67;4.68;;;;;;;8.49;49.21;100931.00;4884719;28;97875;-79
2022/01/31 01:47:36;;;;;;;;;;;;;;;;;;;;;
2022/01/31 01:50:09;;;;;;;30.67;4.32;;;;;;;8.34;49.34;100919.03;4911585;28;117637;-78
2022/01/31 01:52:53;;;;;;;;;;;;;;;;;;;;;
2022/01/31 02:05:44;;;;;;;43.83;5.32;;;;;;;8.33;48.53;100872.56;4767447;29;96704;-78
2022/01/31 02:08:14;;;;;;;27.42;3.70;;;;;;;8.39;48.01;100865.41;4835654;28;99470;-79
2022/01/31 02:10:48;;;;;;;26.77;3.83;;;;;;;8.60;47.59;100865.75;4911593;28;96670;-79
2022/01/31 02:13:20;;;;;;;27.73;4.57;;;;;;;8.66;46.96;100861.16;4907124;28;96926;-78
2022/01/31 02:15:52;;;;;;;41.20;5.40;;;;;;;8.68;46.78;100851.47;4903863;28;97854;-80
2022/01/31 02:18:30;;;;;;;;;;;;;;;;;;;;;
2022/01/31 02:21:37;;;;;;;;;;;;;;;;;;;;;
2022/01/31 02:24:18;;;;;;;;;;;;;;;;;;;;;
2022/01/31 02:26:58;;;;;;;;;;;;;;;;;;;;;
2022/01/31 02:29:35;;;;;;;;;;;;;;;;;;;;;
2022/01/31 02:32:13;;;;;;;;;;;;;;;;;;;;;
2022/01/31 02:35:04;;;;;;;33.53;5.47;;;;;;;8.36;46.47;100804.03;4895536;28;116763;-80
2022/01/31 02:37:34;;;;;;;40.08;4.97;;;;;;;8.31;46.82;100801.53;4891701;28;99387;-79
2022/01/31 02:40:05;;;;;;;28.75;4.25;;;;;;;8.02;47.78;100804.81;4889622;28;99129;-79
2022/01/31 02:42:40;;;;;;;38.00;5.30;;;;;;;8.02;47.21;100793.44;4894813;28;96872;-79
2022/01/31 02:45:19;;;;;;;37.20;6.03;;;;;;;7.89;47.52;100797.25;4884636;28;96970;-80
2022/01/31 02:47:52;;;;;;;38.78;4.38;;;;;;;8.43;46.30;100786.31;4901263;28;98943;-78
2022/01/31 02:50:26;;;;;;;47.72;4.80;;;;;;;8.39;46.57;100772.38;4895427;28;99708;-79
2022/01/31 02:53:11;;;;;;;38.95;5.95;;;;;;;8.10;46.58;100773.06;4897497;28;97512;-80
2022/01/31 02:56:22;;;;;;;;;;;;;;;;;;;;;
2022/01/31 02:59:31;;;;;;;;;;;;;;;;;;;;;
2022/01/31 03:06:17;;;;;;;42.53;4.90;;;;;;;8.42;45.71;100752.97;4751831;29;97150;-80
2022/01/31 03:08:57;;;;;;;;;;;;;;;;;;;;;
2022/01/31 03:11:24;;;;;;;45.95;4.88;;;;;;;8.50;45.99;100737.84;4894576;28;126670;-78
2022/01/31 03:13:51;;;;;;;38.83;5.03;;;;;;;8.92;44.90;100734.03;4893867;28;97012;-77
2022/01/31 03:16:18;;;;;;;31.67;4.22;;;;;;;8.91;44.91;100729.66;4895285;28;97000;-80
2022/01/31 03:18:46;;;;;;;44.10;5.03;;;;;;;8.89;44.96;100726.19;4891191;28;96966;-79
2022/01/31 03:21:15;;;;;;;43.10;4.30;;;;;;;8.75;44.69;100712.53;4896138;28;99431;-78
2022/01/31 03:23:43;;;;;;;39.97;5.40;;;;;;;9.04;44.42;100707.31;4891693;28;100658;-78
2022/01/31 03:26:24;;;;;;;;;;;;;;;;;;;;;
2022/01/31 03:29:01;;;;;;;31.05;4.80;;;;;;;9.09;43.93;100699.25;4892363;28;118905;-80
2022/01/31 03:31:32;;;;;;;43.20;4.38;;;;;;;8.94;44.11;100695.28;4903454;28;98943;-77
2022/01/31 03:34:14;;;;;;;51.05;5.22;;;;;;;8.83;44.44;100683.34;4913129;28;99934;-79
2022/01/31 03:36:44;;;;;;;47.13;5.50;;;;;;;8.70;44.68;100677.56;4917945;28;96692;-79
2022/01/31 03:39:17;;;;;;;29.65;4.07;;;;;;;8.93;44.21;100671.59;4913426;28;96953;-79
2022/01/31 03:41:46;;;;;;;43.78;4.68;;;;;;;8.82;44.55;100661.41;4898931;28;97865;-78
2022/01/31 03:44:20;;;;;;;37.13;5.57;;;;;;;8.80;44.34;100650.03;4899696;28;97665;-78
2022/01/31 03:46:49;;;;;;;27.77;3.72;;;;;;;8.93;43.88;100639.97;4895413;28;96797;-81
2022/01/31 03:49:16;;;;;;;45.70;5.10;;;;;;;8.75;44.23;100636.13;4900130;28;96988;-79
2022/01/31 03:51:43;;;;;;;46.78;5.32;;;;;;;8.63;44.50;100628.59;4898011;28;99254;-80
2022/01/31 03:54:24;;;;;;;46.22;4.72;;;;;;;8.77;44.43;100619.38;4896031;28;96858;-79
2022/01/31 03:56:59;;;;;;;39.22;4.95;;;;;;;8.93;44.28;100606.59;4894490;28;96887;-80
2022/01/31 03:59:33;;;;;;;36.28;5.15;;;;;;;9.03;43.87;100599.28;4896303;28;96866;-80
2022/01/31 04:02:23;;;;;;;37.05;4.95;;;;;;;8.91;44.13;100592.63;4893778;28;99411;-79
2022/01/31 04:05:21;;;;;;;40.05;5.05;;;;;;;8.99;43.79;100584.47;4894346;28;101529;-79
2022/01/31 04:08:19;;;;;;;;;;;;;;;;;;;;;
2022/01/31 04:10:56;;;;;;;;;;;;;;;;;;;;;
2022/01/31 04:14:02;;;;;;;;;;;;;;;;;;;;;
2022/01/31 04:17:10;;;;;;;;;;;;;;;;;;;;;
2022/01/31 04:20:21;;;;;;;;;;;;;;;;;;;;;
2022/01/31 04:36:28;;;;;;;;;;;;;;;;;;;;;
2022/01/31 04:38:57;;;;;;;49.00;6.07;;;;;;;8.77;44.44;100487.66;4862108;28;127624;-78
2022/01/31 04:41:25;;;;;;;39.10;5.60;;;;;;;8.96;43.85;100487.06;4891622;28;98299;-78
2022/01/31 04:43:54;;;;;;;42.45;5.03;;;;;;;8.91;44.00;100492.50;4894418;28;96748;-79
2022/01/31 04:46:22;;;;;;;40.83;4.70;;;;;;;8.96;44.19;100485.28;4894557;28;96937;-80
2022/01/31 04:48:49;;;;;;;33.70;4.45;;;;;;;8.66;44.29;100471.31;4895048;28;100432;-79
2022/01/31 04:51:18;;;;;;;29.90;4.57;;;;;;;8.83;44.45;100465.53;4894923;28;100942;-79
2022/01/31 04:53:44;;;;;;;49.25;5.78;;;;;;;8.99;44.01;100445.63;4891609;28;96908;-79
2022/01/31 04:56:37;;;;;;;46.22;5.95;;;;;;;8.78;44.21;100449.88;4894498;28;96936;-80
2022/01/31 04:59:04;;;;;;;43.78;4.50;;;;;;;8.77;44.40;100447.28;4892612;28;99650;-79
2022/01/31 05:01:46;;;;;;;38.15;5.22;;;;;;;8.67;44.79;100435.31;4891402;28;99316;-80
2022/01/31 05:04:22;;;;;;;55.63;6.18;;;;;;;8.75;44.54;100439.41;4890565;28;96707;-80
2022/01/31 05:14:20;;;;;;;;;;;;;;;;;;;;;
2022/01/31 05:17:31;;;;;;;;;;;;;;;;;;;;;
2022/01/31 05:27:14;;;;;;;;;;;;;;;;;;;;;
2022/01/31 05:30:23;;;;;;;42.50;5.07;;;;;;;8.75;44.32;100396.41;4855879;29;117248;-81
2022/01/31 05:37:45;;;;;;;37.67;4.38;;;;;;;8.66;44.43;100375.66;4774759;29;97860;-79
2022/01/31 05:40:52;;;;;;;50.97;5.22;;;;;;;8.67;44.67;100362.41;4752071;29;100263;-80
2022/01/31 05:43:53;;;;;;;41.00;5.03;;;;;;;8.63;44.68;100352.91;4799459;29;96666;-79
2022/01/31 05:46:31;;;;;;;;;;;;;;;;;;;;;
2022/01/31 05:49:00;;;;;;;47.17;6.22;;;;;;;8.51;44.39;100337.53;4907729;28;128083;-79
2022/01/31 05:51:28;;;;;;;42.55;5.30;;;;;;;8.61;44.27;100332.78;4907384;28;98926;-81
2022/01/31 05:53:55;;;;;;;53.80;5.28;;;;;;;8.63;44.07;100323.94;4909829;28;96792;-79
2022/01/31 05:56:24;;;;;;;39.45;5.10;;;;;;;8.46;44.69;100318.38;4909861;28;96570;-78
2022/01/31 05:59:25;;;;;;;;;;;;;;;;;;;;;
2022/01/31 06:06:23;;;;;;;;;;;;;;;;;;;;;
2022/01/31 06:12:30;;;;;;;38.07;4.00;;;;;;;8.59;44.95;100284.59;4875455;28;101693;-78
2022/01/31 06:15:32;;;;;;;34.10;4.72;;;;;;;8.43;44.64;100281.63;4893548;28;97642;-79
2022/01/31 06:18:01;;;;;;;42.92;4.97;;;;;;;8.54;44.37;100275.97;4798267;29;97326;-79
2022/01/31 06:20:40;;;;;;;49.38;6.18;;;;;;;8.44;44.31;100274.59;4848320;28;97427;-77
2022/01/31 06:23:08;;;;;;;26.73;4.65;;;;;;;8.51;44.43;100255.03;4910281;28;99007;-78
2022/01/31 06:25:43;;;;;;;43.78;5.63;;;;;;;8.40;44.58;100258.03;4910014;28;99761;-77
2022/01/31 06:28:11;;;;;;;35.22;5.65;;;;;;;8.27;44.51;100246.19;4905861;28;96807;-79
2022/01/31 06:30:38;;;;;;;35.38;5.05;;;;;;;8.05;44.91;100246.03;4894239;28;97285;-80
2022/01/31 06:33:04;;;;;;;43.13;4.85;;;;;;;7.82;45.27;100243.25;4896774;28;101158;-77
2022/01/31 06:35:31;;;;;;;37.58;6.65;;;;;;;8.03;44.93;100242.56;4900252;28;98149;-77
2022/01/31 06:37:58;;;;;;;43.97;5.10;;;;;;;8.04;45.18;100238.16;4897595;28;96864;-76
2022/01/31 06:40:24;;;;;;;39.65;5.18;;;;;;;8.14;44.85;100224.66;4896900;28;96859;-77
2022/01/31 06:42:51;;;;;;;50.35;5.13;;;;;;;7.95;45.27;100228.81;4897070;28;99618;-77
2022/01/31 06:45:18;;;;;;;42.53;5.15;;;;;;;8.30;44.73;100214.47;4900841;28;99171;-77
2022/01/31 06:47:45;;;;;;;38.35;5.30;;;;;;;8.21;44.54;100206.88;4899090;28;98483;-78
2022/01/31 06:50:57;;;;;;;;;;;;;;;;;;;;;
2022/01/31 06:53:27;;;;;;;35.25;4.65;;;;;;;8.36;44.08;100194.09;4902807;28;127452;-77
2022/01/31 06:55:55;;;;;;;58.10;6.20;;;;;;;8.32;44.21;100183.72;4895189;28;98815;-77
2022/01/31 06:58:26;;;;;;;42.53;6.28;;;;;;;8.61;43.97;100183.53;4895885;28;96767;-78
2022/01/31 07:00:56;;;;;;;44.17;5.60;;;;;;;8.37;43.52;100180.00;4894265;28;97686;-78
2022/01/31 07:03:27;;;;;;;47.08;5.00;;;;;;;8.52;43.86;100172.50;4896512;28;99774;-78
2022/01/31 07:05:59;;;;;;;36.72;5.07;;;;;;;8.36;43.87;100166.91;4891409;28;98807;-78
2022/01/31 07:08:42;;;;;;;44.17;5.20;;;;;;;8.31;44.02;100169.69;4898830;28;97113;-80
2022/01/31 07:11:13;;;;;;;37.72;5.13;;;;;;;8.37;43.91;100158.94;4895503;28;97523;-78
2022/01/31 07:13:40;;;;;;;41.72;5.38;;;;;;;8.63;43.64;100152.75;4895297;28;99137;-77
2022/01/31 07:16:07;;;;;;;43.50;6.25;;;;;;;8.66;43.10;100163.16;4889478;28;99140;-76
2022/01/31 07:18:35;;;;;;;42.17;5.82;;;;;;;8.58;43.53;100165.22;4894799;28;99240;-76
2022/01/31 07:21:02;;;;;;;35.13;5.28;;;;;;;8.37;44.21;100156.31;4894161;28;97361;-78
2022/01/31 07:23:39;;;;;;;30.77;4.43;;;;;;;8.59;43.80;100156.41;4898659;28;101539;-77
2022/01/31 07:26:05;;;;;;;42.10;5.85;;;;;;;8.61;43.83;100154.56;4889473;28;98923;-77
2022/01/31 07:28:32;;;;;;;39.72;5.10;;;;;;;8.50;43.65;100153.25;4894509;28;97912;-75
2022/01/31 07:30:58;;;;;;;39.85;5.45;;;;;;;8.52;43.50;100152.28;4889853;28;98821;-77
2022/01/31 07:33:26;;;;;;;37.58;5.10;;;;;;;8.65;43.14;100137.75;4897124;28;101207;-78
2022/01/31 07:35:53;;;;;;;43.17;8.10;;;;;;;8.72;43.54;100141.88;4898421;28;98266;-79
2022/01/31 07:38:21;;;;;;;46.92;7.25;;;;;;;8.87;43.44;100144.81;4917055;28;96659;-78
2022/01/31 07:40:48;;;;;;;46.13;5.80;;;;;;;8.54;43.61;100137.25;4916645;28;96793;-75
2022/01/31 07:43:17;;;;;;;38.60;5.20;;;;;;;8.61;43.75;100140.53;4915998;28;97189;-79
2022/01/31 07:45:44;;;;;;;36.42;5.70;;;;;;;8.48;43.71;100129.59;4902815;28;97075;-78
2022/01/31 07:48:11;;;;;;;38.08;7.18;;;;;;;8.66;43.54;100128.06;5063691;23;97261;-78
2022/01/31 07:50:58;;;;;;;41.25;6.43;;;;;;;8.27;44.07;100118.03;4913340;28;96757;-78
2022/01/31 07:53:25;;;;;;;37.55;4.53;;;;;;;8.29;43.99;100117.97;4914219;28;98879;-78
2022/01/31 07:55:51;;;;;;;36.20;4.80;;;;;;;8.48;43.78;100116.44;4915600;28;98841;-78
2022/01/31 07:58:20;;;;;;;35.97;5.68;;;;;;;8.35;44.32;100116.03;4915853;28;96930;-78
2022/01/31 08:00:53;;;;;;;41.67;5.35;;;;;;;7.97;44.91;100114.72;4913912;28;96877;-81
2022/01/31 08:03:20;;;;;;;44.60;5.53;;;;;;;8.10;44.84;100102.00;4915785;28;98183;-80
2022/01/31 08:06:21;;;;;;;44.65;6.00;;;;;;;8.16;44.54;100099.13;4915816;28;99278;-81
2022/01/31 08:08:50;;;;;;;39.97;5.20;;;;;;;7.86;45.31;100094.97;4912680;28;97255;-78
2022/01/31 08:11:18;;;;;;;39.70;5.13;;;;;;;7.97;45.10;100088.41;4919399;28;96795;-80
2022/01/31 08:13:44;;;;;;;34.50;5.35;;;;;;;8.27;44.45;100083.81;4910833;28;98967;-78
2022/01/31 08:16:12;;;;;;;38.70;6.70;;;;;;;8.42;44.25;100082.44;4913254;28;98923;-77
2022/01/31 08:18:40;;;;;;;38.72;4.35;;;;;;;8.75;43.52;100075.03;4913050;28;97716;-79
2022/01/31 08:21:09;;;;;;;40.55;5.95;;;;;;;8.87;43.44;100076.31;4913330;28;97088;-79
2022/01/31 08:23:36;;;;;;;38.08;5.25;;;;;;;9.06;42.85;100075.53;4912154;28;99245;-78
2022/01/31 08:26:04;;;;;;;48.10;5.60;;;;;;;8.79;43.19;100072.19;4912409;28;98890;-78
2022/01/31 08:28:36;;;;;;;44.85;6.18;;;;;;;8.69;43.78;100077.91;4910256;28;97178;-78
2022/01/31 08:31:10;;;;;;;32.90;4.72;;;;;;;8.54;44.17;100076.69;4915030;28;96777;-77
2022/01/31 08:33:39;;;;;;;35.28;5.13;;;;;;;8.80;43.50;100073.94;4913375;28;100603;-77
2022/01/31 08:36:08;;;;;;;47.45;5.57;;;;;;;8.90;43.31;100069.16;4913301;28;97759;-78
2022/01/31 08:38:38;;;;;;;38.60;5.65;;;;;;;9.14;42.87;100055.00;4913111;28;97892;-77
2022/01/31 08:41:05;;;;;;;45.83;7.38;;;;;;;9.10;42.98;100053.44;4909919;28;97290;-78
2022/01/31 08:43:33;;;;;;;40.50;5.80;;;;;;;9.01;43.09;100056.41;4913267;28;99105;-77
2022/01/31 08:46:00;;;;;;;40.03;6.07;;;;;;;8.83;43.24;100046.63;4909878;28;100816;-77
2022/01/31 08:48:28;;;;;;;47.35;5.78;;;;;;;8.42;43.88;100049.97;4911611;28;98482;-77
2022/01/31 08:50:55;;;;;;;36.38;5.45;;;;;;;8.80;43.66;100057.25;4909219;28;97601;-75
2022/01/31 08:53:22;;;;;;;40.00;5.95;;;;;;;8.69;43.55;100048.94;4910667;28;98985;-80
2022/01/31 08:55:56;;;;;;;32.03;5.15;;;;;;;8.70;44.25;100045.38;4910045;28;98789;-77
2022/01/31 08:58:23;;;;;;;30.85;5.40;;;;;;;8.65;43.97;100028.91;4909428;28;97788;-77
2022/01/31 09:00:58;;;;;;;40.17;5.80;;;;;;;8.86;43.27;100030.66;4909346;28;96978;-77
2022/01/31 09:03:40;;;;;;;45.88;6.50;;;;;;;8.86;43.19;100030.66;4895202;28;101586;-78
2022/01/31 09:06:08;;;;;;;42.47;5.70;;;;;;;9.17;42.78;100031.19;4911515;28;100092;-80
2022/01/31 09:08:36;;;;;;;38.13;5.60;;;;;;;8.79;43.50;100034.50;4908845;28;96918;-78
2022/01/31 09:11:04;;;;;;;37.08;5.68;;;;;;;9.06;42.86;100021.97;4917262;28;97430;-78
2022/01/31 09:13:32;;;;;;;35.65;4.97;;;;;;;9.31;42.35;100027.13;4918310;28;98594;-78
2022/01/31 09:15:59;;;;;;;45.45;5.75;;;;;;;9.26;42.26;100021.16;4912781;28;98956;-77
2022/01/31 09:18:26;;;;;;;36.00;5.93;;;;;;;9.38;42.14;100018.88;4914067;28;96932;-78
2022/01/31 09:21:14;;;;;;;44.63;6.75;;;;;;;9.27;42.38;100021.09;4911965;28;96976;-77
2022/01/31 09:23:41;;;;;;;34.20;5.45;;;;;;;9.12;42.87;100012.03;4921502;28;97661;-75
2022/01/31 09:26:09;;;;;;;40.78;5.85;;;;;;;9.26;42.44;100010.59;4921464;28;99286;-78
2022/01/31 09:28:36;;;;;;;35.67;5.60;;;;;;;9.34;42.12;100001.47;4923980;28;96840;-79
2022/01/31 09:31:04;;;;;;;37.10;5.72;;;;;;;9.14;42.53;100004.94;4928579;28;99716;-78
2022/01/31 09:33:31;;;;;;;38.80;5.28;;;;;;;9.35;42.39;100005.81;4933262;28;99216;-79
2022/01/31 09:35:57;;;;;;;34.60;5.82;;;;;;;9.42;41.91;100011.69;4932911;28;98186;-79
2022/01/31 09:38:25;;;;;;;45.20;5.63;;;;;;;9.42;42.11;100009.06;4931725;28;95974;-78
2022/01/31 09:40:51;;;;;;;32.97;5.88;;;;;;;8.96;42.67;100000.41;4927465;28;96528;-77
2022/01/31 09:46:17;;;;;;;32.25;5.25;;;;;;;9.41;42.46;99988.88;4871559;28;97893;-76
2022/01/31 09:48:45;;;;;;;34.85;5.20;;;;;;;9.40;41.57;99982.75;4914017;28;97372;-79
2022/01/31 09:51:13;;;;;;;37.70;5.55;;;;;;;9.59;41.50;99988.94;4909355;28;99656;-75
2022/01/31 09:53:42;;;;;;;41.63;6.15;;;;;;;9.58;41.10;99984.59;4914047;28;101085;-77
2022/01/31 09:56:10;;;;;;;28.25;6.35;;;;;;;9.68;40.99;99979.78;4915493;28;99068;-78
2022/01/31 09:58:39;;;;;;;35.80;6.22;;;;;;;9.40;41.48;99971.34;4915104;28;97600;-78
2022/01/31 10:01:09;;;;;;;39.78;5.78;;;;;;;9.21;42.18;99973.91;4914866;28;97597;-77
2022/01/31 10:03:50;;;;;;;37.70;5.85;;;;;;;9.06;42.15;99980.66;4914099;28;98911;-77
2022/01/31 10:06:22;;;;;;;36.22;4.97;;;;;;;9.22;42.28;99974.75;4913127;28;97735;-76
2022/01/31 10:08:49;;;;;;;32.88;5.93;;;;;;;9.61;41.69;99980.97;4917599;28;97173;-79
2022/01/31 10:11:27;;;;;;;40.17;6.50;;;;;;;9.59;41.53;99985.44;4919154;28;97810;-77
2022/01/31 10:16:46;;;;;;;35.30;6.30;;;;;;;9.85;41.30;99985.16;4925881;28;96866;-77
2022/01/31 10:19:13;;;;;;;47.70;6.85;;;;;;;9.46;41.63;99978.97;4913637;28;98507;-75
2022/01/31 10:22:02;;;;;;;37.50;5.40;;;;;;;9.60;41.49;99982.75;4916111;28;96829;-76
2022/01/31 10:24:30;;;;;;;41.00;6.40;;;;;;;9.75;41.21;99986.50;4917367;28;98939;-76
2022/01/31 10:26:57;;;;;;;42.72;6.40;;;;;;;9.73;41.64;99982.19;4914800;28;98726;-76
2022/01/31 10:29:26;;;;;;;38.60;5.60;;;;;;;9.78;40.99;99986.34;4913147;28;96971;-76
2022/01/31 10:32:05;;;;;;;36.95;5.53;;;;;;;9.77;41.03;99975.88;4911977;28;97158;-76
2022/01/31 10:34:35;;;;;;;43.50;5.53;;;;;;;9.90;40.98;99975.28;4909538;28;98232;-76
2022/01/31 10:37:03;;;;;;;35.05;5.10;;;;;;;9.85;41.07;99961.41;4911284;28;98810;-77
2022/01/31 10:45:26;;;;;;;43.08;5.75;;;;;;;9.71;41.18;99968.25;4915264;28;96729;-77
2022/01/31 10:51:02;;;;;;;34.90;5.13;;;;;;;10.00;40.76;99950.16;4922580;28;97657;-76
2022/01/31 10:53:38;;;;;;;30.20;5.50;;;;;;;10.01;40.62;99948.38;4918119;28;97410;-80
2022/01/31 10:56:08;;;;;;;29.35;5.30;;;;;;;10.03;40.51;99945.69;4925796;28;102112;-80
2022/01/31 10:58:35;;;;;;;30.20;7.93;;;;;;;10.07;40.19;99934.91;4913187;28;100468;-79
2022/01/31 11:01:17;;;;;;;32.78;5.18;;;;;;;10.27;39.83;99947.22;4915059;28;97562;-78
2022/01/31 11:03:45;;;;;;;33.47;6.82;;;;;;;10.01;40.49;99940.47;4912998;28;97417;-79
2022/01/31 11:06:12;;;;;;;33.97;5.93;;;;;;;9.84;40.87;99950.94;4932004;28;99450;-79
2022/01/31 11:08:39;;;;;;;33.60;6.07;;;;;;;9.79;40.85;99951.13;4933311;28;98052;-79
2022/01/31 11:11:07;;;;;;;34.35;5.82;;;;;;;10.30;40.08;99937.38;4935088;28;96940;-80
2022/01/31 11:13:35;;;;;;;32.20;5.50;;;;;;;10.28;40.06;99947.16;4935114;28;96829;-78
2022/01/31 11:16:04;;;;;;;37.30;7.05;;;;;;;10.55;39.68;99952.91;4931974;28;99563;-80
2022/01/31 11:21:08;;;;;;;31.45;5.38;;;;;;;10.51;39.70;99953.97;5218668;23;100014;-78
2022/01/31 11:23:40;;;;;;;43.45;5.57;;;;;;;10.64;38.90;99944.53;4930605;28;97256;-80
2022/01/31 11:26:09;;;;;;;32.05;5.50;;;;;;;10.66;39.10;99949.75;4934039;28;100631;-79
2022/01/31 11:28:38;;;;;;;36.55;6.25;;;;;;;10.71;39.31;99947.72;4927168;28;99259;-76
2022/01/31 11:31:05;;;;;;;26.67;5.22;;;;;;;10.82;38.73;99947.22;4937792;28;96864;-79
2022/01/31 11:33:34;;;;;;;31.85;4.55;;;;;;;10.77;39.04;99943.00;4939890;28;96871;-80
2022/01/31 11:36:01;;;;;;;27.33;5.00;;;;;;;11.00;38.77;99943.66;4940411;28;101168;-79
2022/01/31 11:38:29;;;;;;;36.70;6.65;;;;;;;10.91;39.21;99944.97;4946657;28;97569;-80
2022/01/31 11:41:09;;;;;;;30.77;5.15;;;;;;;10.92;38.71;99943.19;4946477;28;97244;-81
2022/01/31 11:43:36;;;;;;;22.65;4.32;;;;;;;11.17;38.55;99939.22;4947450;28;96761;-80
2022/01/31 11:46:04;;;;;;;22.20;4.78;;;;;;;10.88;38.74;99941.63;4933973;28;98226;-79
2022/01/31 11:48:31;;;;;;;35.10;5.43;;;;;;;11.38;38.07;99939.94;4932787;28;98924;-79
2022/01/31 11:51:02;;;;;;;23.17;4.63;;;;;;;11.56;37.70;99938.09;4935661;28;96712;-81
2022/01/31 11:53:32;;;;;;;32.28;5.00;;;;;;;11.27;37.91;99931.69;4932760;28;97461;-79
2022/01/31 11:56:06;;;;;;;30.63;4.95;;;;;;;11.45;37.86;99936.03;4935045;28;101709;-79
2022/01/31 11:58:36;;;;;;;29.58;5.40;;;;;;;11.56;37.76;99931.03;4934022;28;100989;-79
2022/01/31 12:01:06;;;;;;;26.63;5.03;;;;;;;11.64;37.47;99929.78;4937787;28;96744;-78
2022/01/31 12:03:36;;;;;;;31.48;5.25;;;;;;;11.42;38.25;99936.19;4946717;28;96726;-80
2022/01/31 12:06:11;;;;;;;26.40;5.93;;;;;;;11.56;37.91;99936.31;4954507;28;100101;-81
2022/01/31 12:08:49;;;;;;;29.23;5.43;;;;;;;11.83;37.29;99943.78;4957784;28;97739;-82
2022/01/31 12:11:23;;;;;;;34.85;5.72;;;;;;;12.00;37.09;99942.88;4948027;28;96873;-80
2022/01/31 12:13:53;;;;;;;33.70;5.78;;;;;;;11.48;37.94;99938.53;4940756;28;97034;-81
2022/01/31 12:16:47;;;;;;;32.13;5.53;;;;;;;11.71;37.63;99942.59;4939854;28;98262;-80
2022/01/31 12:19:34;;;;;;;26.88;5.20;;;;;;;11.69;37.66;99939.19;4938217;28;99304;-81
2022/01/31 12:22:00;;;;;;;28.02;4.88;;;;;;;11.69;37.63;99939.19;4944142;28;96699;-80
2022/01/31 12:24:31;;;;;;;39.72;5.80;;;;;;;11.61;37.72;99935.25;4940403;28;96808;-81
2022/01/31 12:27:04;;;;;;;35.30;5.57;;;;;;;11.50;37.97;99936.66;4934590;28;97745;-82
2022/01/31 12:29:32;;;;;;;34.92;6.47;;;;;;;11.41;38.01;99933.63;4932532;28;99094;-79
2022/01/31 12:32:10;;;;;;;26.80;5.55;;;;;;;11.35;38.26;99933.97;4931318;28;96850;-78
2022/01/31 12:34:39;;;;;;;33.47;5.85;;;;;;;11.54;38.18;99934.72;4934767;28;96760;-78
2022/01/31 12:37:16;;;;;;;34.00;5.32;;;;;;;11.51;37.79;99930.44;4929231;28;99040;-79
2022/01/31 12:39:57;;;;;;;32.03;6.07;;;;;;;11.26;38.05;99940.56;4933078;28;99306;-79
2022/01/31 12:42:45;;;;;;;39.58;6.63;;;;;;;11.82;37.20;99944.72;4932308;28;96782;-81
2022/01/31 12:45:14;;;;;;;42.25;5.90;;;;;;;11.78;37.27;99938.75;4933578;28;96908;-78
2022/01/31 12:48:16;;;;;;;34.92;5.82;;;;;;;10.68;38.91;99934.69;4928651;28;98641;-80
2022/01/31 12:50:46;;;;;;;36.28;5.65;;;;;;;10.78;38.99;99934.16;4932840;28;101947;-79
2022/01/31 12:53:42;;;;;;;36.38;7.20;;;;;;;11.35;37.90;99932.16;4933600;28;98917;-79
2022/01/31 12:56:13;;;;;;;34.33;6.55;;;;;;;10.98;38.71;99940.22;4936349;28;97448;-79
2022/01/31 12:58:41;;;;;;;33.83;7.30;;;;;;;10.95;38.62;99940.41;4939121;28;100600;-79
2022/01/31 13:01:10;;;;;;;44.70;7.65;;;;;;;11.03;38.91;99938.19;4936276;28;100850;-79
2022/01/31 13:03:40;;;;;;;35.33;7.25;;;;;;;11.37;38.16;99935.56;4934623;28;96815;-79
2022/01/31 13:06:24;;;;;;;45.08;6.93;;;;;;;11.32;38.38;99934.97;4932125;28;97250;-80
2022/01/31 13:08:51;;;;;;;38.72;7.15;;;;;;;11.47;38.32;99934.19;4932108;28;99513;-78
2022/01/31 13:11:18;;;;;;;39.08;7.07;;;;;;;11.51;38.20;99934.84;4931106;28;99173;-79
2022/01/31 13:13:46;;;;;;;36.65;7.03;;;;;;;11.27;38.11;99937.00;4934195;28;96955;-79
2022/01/31 13:16:14;;;;;;;38.30;6.90;;;;;;;11.25;38.35;99938.00;4933720;28;97803;-80
2022/01/31 13:18:43;;;;;;;45.13;8.07;;;;;;;11.01;38.89;99940.94;4934135;28;102515;-79
2022/01/31 13:21:12;;;;;;;41.72;6.32;;;;;;;10.80;39.19;99942.00;4930861;28;98188;-79
2022/01/31 13:23:40;;;;;;;31.08;5.85;;;;;;;10.86;39.06;99954.06;4929334;28;96816;-78
2022/01/31 13:26:08;;;;;;;41.33;6.65;;;;;;;10.97;39.46;99952.59;4931774;28;98508;-78
2022/01/31 13:28:35;;;;;;;40.22;7.03;;;;;;;10.74;39.40;99953.72;4932309;28;99099;-80
2022/01/31 13:31:04;;;;;;;41.53;8.10;;;;;;;11.09;38.89;99959.91;4932174;28;98903;-79
2022/01/31 13:33:30;;;;;;;35.85;6.75;;;;;;;10.99;38.81;99965.75;4937695;28;97669;-79
2022/01/31 13:36:01;;;;;;;35.58;6.00;;;;;;;11.25;38.42;99965.28;4932575;28;96960;-77